Time;durP1;ratioP1;P1;durP2;ratioP2;P2;SDS_P1;SDS_P2;PMS_P1;PMS_P2;Temp;Humidity;BMP_temperature;BMP_pressure;BME280_temperature;BME280_humidity;BME280_pressure;Samples;Min_cycle;Max_cycle;Signal;HPM_P1;HPM_P2
2023/06/29 00:00:25;;;;;;;3.27;3.03;;;;;;;-143.84;87.61;45066.22;4913726;29;20555;-55
2023/06/29 00:02:53;;;;;;;9.90;3.30;;;;;;;-143.84;87.53;45100.47;4913309;29;20449;-55
2023/06/29 00:05:21;;;;;;;3.80;3.00;;;;;;;-143.84;88.59;45071.91;4913258;29;20448;-55
2023/06/29 00:07:48;;;;;;;3.00;2.80;;;;;;;-143.84;89.23;45113.81;4913304;29;20445;-55
2023/06/29 00:10:15;;;;;;;3.40;3.10;;;;;;;-143.84;89.44;45092.88;4913261;29;20504;-55
2023/06/29 00:12:42;;;;;;;3.00;2.80;;;;;;;-143.84;89.79;45073.81;4912647;29;20504;-55
2023/06/29 00:15:10;;;;;;;3.97;3.57;;;;;;;-143.84;90.58;45056.69;4912711;29;20484;-55
2023/06/29 00:17:39;;;;;;;4.33;3.40;;;;;;;-143.84;90.97;45077.63;4912302;29;20448;-55
2023/06/29 00:20:10;;;;;;;5.77;3.30;;;;;;;-143.84;91.43;45090.97;4913055;29;20445;-55
2023/06/29 00:22:39;;;;;;;3.53;2.80;;;;;;;-143.84;91.67;45068.13;4913132;29;20484;-55
2023/06/29 00:25:08;;;;;;;4.23;3.50;;;;;;;-143.84;92.36;45075.72;4896843;29;20472;-55
2023/06/29 00:27:35;;;;;;;4.00;3.70;;;;;;;-143.84;92.86;45073.81;4894115;29;20454;-55
2023/06/29 00:30:02;;;;;;;6.00;3.13;;;;;;;-143.84;93.27;45071.91;4894120;29;20516;-55
2023/06/29 00:32:29;;;;;;;3.30;3.10;;;;;;;-143.84;93.18;45045.25;4894059;29;20445;-54
2023/06/29 00:34:57;;;;;;;3.83;3.40;;;;;;;-143.84;93.76;45064.31;4893875;29;20541;-54
2023/06/29 00:37:24;;;;;;;4.20;2.83;;;;;;;-143.84;94.35;45068.13;4893876;29;20932;-54
2023/06/29 00:39:51;;;;;;;3.70;3.00;;;;;;;-143.84;95.05;45047.16;4893957;29;20848;-54
2023/06/29 00:42:19;;;;;;;5.53;3.30;;;;;;;-143.84;95.30;45052.88;4893633;29;20441;-54
2023/06/29 00:44:47;;;;;;;3.50;3.20;;;;;;;-143.84;95.59;45041.44;4894082;29;20464;-54
2023/06/29 00:47:14;;;;;;;3.93;3.37;;;;;;;-143.84;95.64;45020.50;4894001;29;20549;-54
2023/06/29 00:49:42;;;;;;;3.40;3.10;;;;;;;-143.84;95.99;44988.13;4893906;29;20444;-54
2023/06/29 00:52:11;;;;;;;3.27;3.03;;;;;;;-143.84;96.21;45033.84;4893904;29;20445;-54
2023/06/29 00:54:38;;;;;;;4.63;3.27;;;;;;;-143.84;96.27;45010.97;4893768;29;20454;-54
2023/06/29 00:57:08;;;;;;;4.90;3.10;;;;;;;-143.84;96.20;45007.19;4893923;29;20505;-54
2023/06/29 00:59:35;;;;;;;9.57;3.87;;;;;;;-143.84;96.49;44997.66;4894082;29;20482;-54
2023/06/29 01:02:02;;;;;;;3.50;3.30;;;;;;;-143.84;97.15;44984.31;4893826;29;20449;-54
2023/06/29 01:04:32;;;;;;;5.83;3.90;;;;;;;-143.84;96.85;44976.72;4893712;29;20509;-54
2023/06/29 01:07:05;;;;;;;3.80;3.50;;;;;;;-143.84;96.72;45001.47;4893597;29;20492;-54
2023/06/29 01:09:35;;;;;;;4.20;3.63;;;;;;;-143.84;96.67;44990.03;4893489;29;20449;-54
2023/06/29 01:12:04;;;;;;;4.27;3.00;;;;;;;-143.84;96.52;44982.41;4893569;29;20454;-54
2023/06/29 01:14:33;;;;;;;4.07;3.20;;;;;;;-143.84;96.53;44991.94;4894044;29;20462;-54
2023/06/29 01:17:02;;;;;;;3.00;2.80;;;;;;;-143.84;96.56;44965.28;4893795;29;20922;-54
2023/06/29 01:19:32;;;;;;;3.93;3.57;;;;;;;-143.84;96.55;44988.13;4893860;29;21263;-55
2023/06/29 01:22:03;;;;;;;3.63;3.43;;;;;;;-143.84;96.80;44978.63;4893517;29;20449;-55
2023/06/29 01:24:38;;;;;;;3.80;3.50;;;;;;;-143.84;96.91;44986.22;4893799;29;20441;-55
2023/06/29 01:27:07;;;;;;;3.23;3.03;;;;;;;-143.84;96.85;44984.31;4893438;29;20524;-55
2023/06/29 01:29:34;;;;;;;7.27;3.90;;;;;;;-143.84;97.44;44986.22;4894438;29;20446;-55
2023/06/29 01:32:03;;;;;;;3.83;3.50;;;;;;;-143.84;97.24;44982.41;4897158;29;20449;-55
2023/06/29 01:34:32;;;;;;;4.77;3.60;;;;;;;-143.84;97.41;44969.09;4896895;29;20445;-56
2023/06/29 01:37:03;;;;;;;3.63;3.33;;;;;;;-143.84;97.69;44953.88;4897071;29;20488;-55
2023/06/29 01:39:38;;;;;;;6.30;3.60;;;;;;;-143.84;97.76;44946.25;4896847;29;20453;-55
2023/06/29 01:42:07;;;;;;;4.73;3.70;;;;;;;-143.84;97.72;44955.75;4897121;29;20515;-55
2023/06/29 01:44:34;;;;;;;4.70;3.40;;;;;;;-143.84;97.89;44896.75;4897190;29;20524;-55
2023/06/29 01:47:02;;;;;;;5.47;3.43;;;;;;;-143.84;97.93;44892.94;4897081;29;20441;-55
2023/06/29 01:49:29;;;;;;;3.73;3.43;;;;;;;-143.84;98.09;44885.31;4896738;29;20445;-55
2023/06/29 01:51:56;;;;;;;3.73;3.53;;;;;;;-143.84;98.18;44900.53;4897018;29;20948;-55
2023/06/29 01:54:23;;;;;;;4.17;3.77;;;;;;;-143.84;98.05;44887.22;4896685;29;20864;-55
2023/06/29 01:56:52;;;;;;;3.77;3.47;;;;;;;-143.84;97.99;44904.34;4896218;29;20584;-55
2023/06/29 01:59:19;;;;;;;4.10;3.70;;;;;;;-143.84;98.01;44913.88;4896529;29;20960;-55
2023/06/29 02:01:46;;;;;;;3.60;3.40;;;;;;;-143.84;98.00;44892.94;4897004;29;20438;-55
2023/06/29 02:04:14;;;;;;;15.57;4.07;;;;;;;-143.84;98.19;44864.38;4896661;29;20513;-55
2023/06/29 02:06:41;;;;;;;5.80;3.97;;;;;;;-143.84;98.37;44849.13;4896730;29;20468;-56
2023/06/29 02:09:08;;;;;;;4.17;3.87;;;;;;;-143.84;98.09;44860.56;4896407;29;20517;-56
2023/06/29 02:11:35;;;;;;;5.37;3.23;;;;;;;-143.84;98.12;44871.97;4896314;29;20445;-56
2023/06/29 02:14:03;;;;;;;4.50;4.10;;;;;;;-143.84;98.21;44870.09;4896280;29;20441;-56
2023/06/29 02:16:30;;;;;;;4.50;3.87;;;;;;;-143.84;98.27;44858.66;4896167;29;20493;-55
2023/06/29 02:18:58;;;;;;;6.60;3.40;;;;;;;-143.84;98.13;44858.66;4895925;29;20516;-55
2023/06/29 02:21:25;;;;;;;12.80;3.80;;;;;;;-143.84;98.04;44835.81;4896228;29;20517;-56
2023/06/29 02:23:52;;;;;;;6.53;3.80;;;;;;;-143.84;97.73;44889.13;4896319;29;20449;-55
2023/06/29 02:26:19;;;;;;;6.90;4.33;;;;;;;-143.84;97.45;44885.31;4896237;29;20468;-55
2023/06/29 02:28:46;;;;;;;9.47;3.70;;;;;;;-143.84;97.24;44900.53;4896092;29;20528;-55
2023/06/29 02:31:15;;;;;;;5.47;4.03;;;;;;;-143.84;97.23;44940.53;4896031;29;20449;-56
2023/06/29 02:33:42;;;;;;;4.90;4.27;;;;;;;-143.84;96.56;45003.38;4896409;29;21228;-55
2023/06/29 02:36:09;;;;;;;5.77;4.10;;;;;;;-143.84;96.53;44957.66;4896216;29;20552;-56
2023/06/29 02:38:36;;;;;;;12.73;5.33;;;;;;;-143.84;96.40;44940.53;4896159;29;21031;-56
2023/06/29 02:41:03;;;;;;;12.37;4.30;;;;;;;-143.84;96.31;44967.19;4895415;29;20596;-56
2023/06/29 02:43:30;;;;;;;5.10;4.60;;;;;;;-143.84;96.11;44984.31;4895855;29;20449;-56
2023/06/29 02:45:57;;;;;;;5.27;4.10;;;;;;;-143.84;96.01;44993.84;4895795;29;20917;-55
2023/06/29 02:48:26;;;;;;;7.10;4.70;;;;;;;-143.84;95.84;44969.09;4895862;29;20453;-55
2023/06/29 02:50:53;;;;;;;4.97;4.67;;;;;;;-143.84;96.11;44991.94;4895607;29;20450;-55
2023/06/29 02:53:20;;;;;;;6.17;5.57;;;;;;;-143.84;96.19;44963.38;4895717;29;20815;-55
2023/06/29 02:55:47;;;;;;;5.40;5.00;;;;;;;-143.84;96.43;44963.38;4895184;29;20505;-55
2023/06/29 02:58:15;;;;;;;6.00;4.70;;;;;;;-143.84;96.44;44984.31;4895618;29;20450;-55
2023/06/29 03:00:42;;;;;;;9.50;5.50;;;;;;;-143.84;96.46;44978.63;4895663;29;20999;-55
2023/06/29 03:03:09;;;;;;;11.83;5.70;;;;;;;-143.84;96.26;44993.84;4895740;29;20445;-56
2023/06/29 03:05:37;;;;;;;18.10;5.33;;;;;;;-143.84;96.18;44965.28;4895305;29;20465;-56
2023/06/29 03:08:05;;;;;;;6.70;4.63;;;;;;;-143.84;95.90;44990.03;4895253;29;20505;-56
2023/06/29 03:10:32;;;;;;;10.37;5.33;;;;;;;-143.84;95.90;45024.31;4895580;29;21022;-56
2023/06/29 03:12:59;;;;;;;7.60;5.50;;;;;;;-143.84;95.93;45014.78;4895336;29;20804;-55
2023/06/29 03:15:26;;;;;;;7.23;5.53;;;;;;;-143.84;95.90;45005.28;4895007;29;20532;-56
2023/06/29 03:17:53;;;;;;;10.50;5.60;;;;;;;-143.84;95.90;45016.69;4895397;29;20449;-56
2023/06/29 03:20:20;;;;;;;5.53;5.07;;;;;;;-143.84;95.87;45010.97;4895157;29;20445;-56
2023/06/29 03:22:49;;;;;;;5.37;4.80;;;;;;;-143.84;95.70;44997.66;4895226;29;20446;-56
2023/06/29 03:25:16;;;;;;;18.30;5.03;;;;;;;-143.84;95.70;44976.72;4895373;29;20457;-56
2023/06/29 03:27:43;;;;;;;9.93;5.10;;;;;;;-143.84;95.47;45007.19;4895180;29;20528;-56
2023/06/29 03:30:11;;;;;;;6.73;5.00;;;;;;;-143.84;95.53;45014.78;4895077;29;20446;-56
2023/06/29 03:32:38;;;;;;;5.50;4.60;;;;;;;-143.84;95.64;45014.78;4894983;29;21049;-56
2023/06/29 03:35:07;;;;;;;6.13;5.13;;;;;;;-143.84;95.56;45007.19;4895079;29;20478;-56
2023/06/29 03:37:34;;;;;;;4.90;4.47;;;;;;;-143.84;95.70;45010.97;4894678;29;20481;-55
2023/06/29 03:40:03;;;;;;;4.97;4.53;;;;;;;-143.84;95.84;44984.31;4894377;29;20456;-55
2023/06/29 03:42:30;;;;;;;6.03;4.73;;;;;;;-143.84;95.92;44955.75;4894324;29;20450;-56
2023/06/29 03:44:57;;;;;;;6.00;5.50;;;;;;;-143.84;95.76;44991.94;4894334;29;20449;-56
2023/06/29 03:47:24;;;;;;;4.80;4.50;;;;;;;-143.84;96.04;44974.81;4894727;29;20971;-56
2023/06/29 03:49:51;;;;;;;11.70;4.80;;;;;;;-143.84;95.99;44978.63;4894634;29;20441;-56
2023/06/29 03:52:18;;;;;;;6.20;4.87;;;;;;;-143.84;96.21;44986.22;4894114;29;20446;-56
2023/06/29 03:54:45;;;;;;;8.63;6.40;;;;;;;-143.84;96.27;44982.41;4894538;29;20506;-56
2023/06/29 03:57:14;;;;;;;5.33;4.87;;;;;;;-143.84;96.05;44982.41;4894256;29;20846;-56
2023/06/29 03:59:41;;;;;;;5.90;5.30;;;;;;;-143.84;96.05;45001.47;4894554;29;20449;-56
2023/06/29 04:02:08;;;;;;;6.97;5.67;;;;;;;-143.84;96.13;44982.41;4894456;29;21008;-56
2023/06/29 04:04:35;;;;;;;8.33;5.67;;;;;;;-143.84;95.89;45010.97;4893843;29;20445;-56
2023/06/29 04:07:02;;;;;;;6.40;5.47;;;;;;;-143.84;95.71;44988.13;4894562;29;20441;-56
2023/06/29 04:09:29;;;;;;;12.77;5.53;;;;;;;-143.84;95.57;44999.56;4912469;29;20517;-56
2023/06/29 04:11:56;;;;;;;11.70;6.13;;;;;;;-143.84;95.40;44986.22;4912776;29;20858;-55
2023/06/29 04:14:24;;;;;;;9.03;5.27;;;;;;;-143.84;95.21;44995.75;4912841;29;21005;-55
2023/06/29 04:16:51;;;;;;;7.27;6.67;;;;;;;-143.84;95.18;45010.97;4912592;29;20492;-55
2023/06/29 04:19:19;;;;;;;6.07;5.47;;;;;;;-143.84;95.23;45014.78;4913153;29;20441;-55
2023/06/29 04:21:46;;;;;;;6.20;5.53;;;;;;;-143.84;94.69;45039.53;4912957;29;20444;-55
2023/06/29 04:24:13;;;;;;;6.43;5.67;;;;;;;-143.84;94.73;45024.31;4905588;29;20441;-56
2023/06/29 04:26:41;;;;;;;6.87;6.27;;;;;;;-143.84;94.53;45012.88;4906054;29;20451;-55
2023/06/29 04:29:08;;;;;;;6.33;5.80;;;;;;;-143.84;94.38;45022.41;4912878;29;20785;-56
2023/06/29 04:31:36;;;;;;;8.93;6.43;;;;;;;-143.84;94.29;45018.59;4912971;29;20970;-56
2023/06/29 04:34:03;;;;;;;6.60;6.00;;;;;;;-143.84;93.70;45035.75;4911998;29;20449;-56
2023/06/29 04:36:31;;;;;;;9.40;6.50;;;;;;;-143.84;93.60;45028.13;4893747;29;20521;-56
2023/06/29 04:38:58;;;;;;;10.70;7.47;;;;;;;-143.84;93.25;45037.66;4907776;29;20448;-56
2023/06/29 04:41:31;;;;;;;7.50;6.73;;;;;;;-143.84;93.40;45033.84;4912645;29;20535;-56
2023/06/29 04:43:59;;;;;;;8.63;7.57;;;;;;;-143.84;92.68;45077.63;4912615;29;20440;-56
2023/06/29 04:46:28;;;;;;;7.93;6.23;;;;;;;-143.84;92.63;45049.06;4909741;29;20965;-55
2023/06/29 04:48:56;;;;;;;7.90;7.10;;;;;;;-143.84;92.21;45060.50;4913142;29;20931;-56
2023/06/29 04:51:25;;;;;;;10.33;7.73;;;;;;;-143.84;92.18;45062.41;4912872;29;20516;-55
2023/06/29 04:53:52;;;;;;;14.90;7.90;;;;;;;-143.84;91.64;45058.59;4912349;29;20480;-55
2023/06/29 04:56:19;;;;;;;8.70;7.80;;;;;;;-143.84;91.27;45087.16;4912351;29;20501;-55
2023/06/29 04:58:46;;;;;;;8.60;7.50;;;;;;;-143.84;90.75;45106.19;4912504;29;20438;-56
2023/06/29 05:01:13;;;;;;;11.93;7.37;;;;;;;-143.84;90.53;45087.16;4912612;29;20520;-56
2023/06/29 05:03:40;;;;;;;10.27;7.50;;;;;;;-143.84;90.57;45087.16;4913654;29;20481;-56
2023/06/29 05:06:09;;;;;;;9.67;8.57;;;;;;;-143.84;90.20;45049.06;4916507;29;20437;-56
2023/06/29 05:08:36;;;;;;;11.60;8.80;;;;;;;-143.84;89.82;45083.34;4916197;29;20520;-56
2023/06/29 05:11:03;;;;;;;10.03;8.70;;;;;;;-143.84;89.57;45111.91;4916308;29;20527;-56
2023/06/29 05:13:30;;;;;;;10.00;7.83;;;;;;;-143.84;89.55;45070.00;4916531;29;20509;-56
2023/06/29 05:15:57;;;;;;;10.03;9.03;;;;;;;-143.84;89.39;45083.34;4916096;29;20454;-56
2023/06/29 05:18:24;;;;;;;11.07;9.70;;;;;;;-143.84;89.40;45087.16;4916282;29;20447;-56
2023/06/29 05:20:51;;;;;;;11.13;8.93;;;;;;;-143.84;89.11;45070.00;4916242;29;20449;-56
2023/06/29 05:23:20;;;;;;;8.23;7.53;;;;;;;-143.84;88.36;45052.88;4916316;29;20531;-56
2023/06/29 05:25:47;;;;;;;9.93;8.27;;;;;;;-143.84;86.36;45075.72;4916107;29;20510;-56
2023/06/29 05:28:14;;;;;;;9.20;7.80;;;;;;;-143.84;85.23;45068.13;4914821;29;20466;-56
2023/06/29 05:30:41;;;;;;;14.40;8.00;;;;;;;-143.84;83.25;45094.78;4902684;29;20452;-56
2023/06/29 05:33:09;;;;;;;8.90;7.90;;;;;;;-143.84;80.82;45066.22;4897344;29;20455;-56
2023/06/29 05:35:36;;;;;;;13.20;8.37;;;;;;;-143.84;80.03;45068.13;4896737;29;20452;-56
2023/06/29 05:38:03;;;;;;;11.13;8.10;;;;;;;-143.84;76.47;45073.81;4896679;29;20516;-56
2023/06/29 05:40:32;;;;;;;9.67;8.77;;;;;;;-143.84;75.29;45083.34;4897016;29;20852;-57
2023/06/29 05:43:00;;;;;;;15.40;9.23;;;;;;;-143.84;72.92;45077.63;4897051;29;20532;-56
2023/06/29 05:45:27;;;;;;;13.00;9.07;;;;;;;-143.84;72.40;45068.13;4897001;29;20442;-56
2023/06/29 05:47:54;;;;;;;10.73;8.67;;;;;;;-143.84;71.48;45070.00;4896879;29;20513;-56
2023/06/29 05:50:22;;;;;;;16.07;8.50;;;;;;;-143.84;69.71;45060.50;4896835;29;20545;-56
2023/06/29 05:52:49;;;;;;;14.20;8.37;;;;;;;-143.84;67.41;45056.69;4896780;29;20449;-56
2023/06/29 05:55:16;;;;;;;9.70;8.80;;;;;;;-143.84;67.23;45049.06;4896866;29;20925;-56
2023/06/29 05:57:45;;;;;;;68.77;58.63;;;;;;;-143.84;67.64;45087.16;4896604;29;20489;-57
2023/06/29 06:00:13;;;;;;;18.47;13.70;;;;;;;-143.84;66.73;45064.31;4896669;29;20525;-58
2023/06/29 06:02:40;;;;;;;9.60;8.47;;;;;;;-143.84;64.54;45028.13;4913546;29;20461;-57
2023/06/29 06:05:08;;;;;;;12.60;9.43;;;;;;;-143.84;64.00;45043.34;4915441;29;20447;-56
2023/06/29 06:07:36;;;;;;;12.30;9.40;;;;;;;-143.84;63.08;45045.25;4915060;29;21118;-57
2023/06/29 06:10:03;;;;;;;9.20;8.30;;;;;;;-143.84;62.52;45047.16;4915042;29;20945;-53
2023/06/29 06:12:30;;;;;;;10.37;9.43;;;;;;;-143.84;62.11;45090.97;4914925;29;20451;-53
2023/06/29 06:14:59;;;;;;;11.67;9.33;;;;;;;-143.84;61.74;45041.44;4914582;29;20449;-57
2023/06/29 06:17:26;;;;;;;18.13;8.77;;;;;;;-143.84;61.90;45054.78;4915002;29;20494;-57
2023/06/29 06:19:54;;;;;;;10.30;7.93;;;;;;;-143.84;60.68;45035.75;4914970;29;20446;-57
2023/06/29 06:22:21;;;;;;;8.37;7.60;;;;;;;-143.84;60.64;45045.25;4915349;29;20506;-57
2023/06/29 06:24:48;;;;;;;12.17;8.80;;;;;;;-143.84;58.91;45064.31;4915120;29;20518;-57
2023/06/29 06:27:16;;;;;;;9.00;7.60;;;;;;;-143.84;58.03;45026.22;4914675;29;20459;-57
2023/06/29 06:29:43;;;;;;;13.03;8.83;;;;;;;-143.84;57.65;45077.63;4914769;29;20447;-57
2023/06/29 06:32:12;;;;;;;10.33;6.97;;;;;;;-143.84;55.54;45049.06;4915149;29;20540;-57
2023/06/29 06:34:39;;;;;;;12.73;8.20;;;;;;;-143.84;54.68;45037.66;4914896;29;20455;-57
2023/06/29 06:37:07;;;;;;;7.40;6.70;;;;;;;-143.84;52.56;45041.44;4915036;29;20487;-58
2023/06/29 06:39:35;;;;;;;10.77;7.70;;;;;;;-143.84;53.06;45033.84;4914770;29;20533;-58
2023/06/29 06:42:02;;;;;;;7.50;6.77;;;;;;;-143.84;50.84;45047.16;4914617;29;20454;-58
2023/06/29 06:44:29;;;;;;;9.47;8.53;;;;;;;-143.84;49.82;45039.53;4914566;29;20450;-58
2023/06/29 06:46:56;;;;;;;10.63;7.53;;;;;;;-143.84;50.42;45009.09;4914797;29;20937;-58
2023/06/29 06:49:25;;;;;;;8.10;7.40;;;;;;;-143.84;47.88;45047.16;4914496;29;20487;-58
2023/06/29 06:51:52;;;;;;;9.73;7.43;;;;;;;-143.84;47.23;44997.66;4914565;29;20457;-58
2023/06/29 06:54:19;;;;;;;8.27;7.20;;;;;;;-143.84;45.93;45012.88;4914698;29;20459;-57
2023/06/29 06:56:46;;;;;;;11.60;6.40;;;;;;;-143.84;45.78;45022.41;4913919;29;20498;-57
2023/06/29 06:59:14;;;;;;;6.80;6.30;;;;;;;-143.84;47.15;45030.03;4903592;29;20449;-58
2023/06/29 07:01:42;;;;;;;8.37;6.60;;;;;;;-143.84;45.97;45020.50;4895502;29;20548;-58
2023/06/29 07:04:09;;;;;;;10.37;6.97;;;;;;;-143.84;46.43;45003.38;4895511;29;20681;-58
2023/06/29 07:06:38;;;;;;;10.33;8.10;;;;;;;-143.84;44.98;45022.41;4895189;29;20445;-58
2023/06/29 07:09:07;;;;;;;9.17;8.37;;;;;;;-143.84;46.12;45041.44;4895393;29;20509;-58
2023/06/29 07:11:34;;;;;;;12.30;8.17;;;;;;;-143.84;46.03;45016.69;4895127;29;20446;-58
2023/06/29 07:14:01;;;;;;;11.33;7.80;;;;;;;-143.84;45.47;45022.41;4895352;29;20513;-57
2023/06/29 07:16:28;;;;;;;12.43;7.33;;;;;;;-143.84;45.29;45037.66;4895635;29;20465;-57
2023/06/29 07:19:08;;;;;;;7.57;6.87;;;;;;;-143.84;45.54;45009.09;4912945;29;20492;-58
2023/06/29 07:21:37;;;;;;;8.67;6.77;;;;;;;-143.84;44.67;44991.94;4914295;29;20525;-58
2023/06/29 07:24:04;;;;;;;10.63;6.80;;;;;;;-143.84;45.04;45014.78;4910010;29;20449;-58
2023/06/29 07:26:32;;;;;;;6.73;6.07;;;;;;;-143.84;43.64;44993.84;4895003;29;20441;-58
2023/06/29 07:28:59;;;;;;;8.60;7.27;;;;;;;-143.84;44.36;44980.53;4895289;29;20882;-58
2023/06/29 07:31:26;;;;;;;7.50;6.23;;;;;;;-143.84;43.68;45001.47;4895242;29;20936;-58
2023/06/29 07:33:54;;;;;;;20.47;7.40;;;;;;;-143.84;43.13;44972.91;4895310;29;20473;-58
2023/06/29 07:36:22;;;;;;;7.47;6.57;;;;;;;-143.84;42.09;45012.88;4894784;29;20512;-58
2023/06/29 07:38:50;;;;;;;7.77;5.90;;;;;;;-143.84;41.45;44978.63;4894804;29;20492;-58
2023/06/29 07:41:19;;;;;;;11.53;6.47;;;;;;;-143.84;41.15;44980.53;4894481;29;20448;-58
2023/06/29 07:43:49;;;;;;;8.33;5.37;;;;;;;-143.84;39.39;44976.72;4894922;29;20889;-58
2023/06/29 07:46:16;;;;;;;8.73;5.13;;;;;;;-143.84;38.75;44976.72;4894756;29;20465;-58
2023/06/29 07:48:43;;;;;;;10.83;6.47;;;;;;;-143.84;39.93;44986.22;4894910;29;20477;-58
2023/06/29 07:51:11;;;;;;;10.40;5.83;;;;;;;-143.84;39.81;44972.91;4894671;29;20931;-58
2023/06/29 07:53:38;;;;;;;5.20;4.90;;;;;;;-143.84;38.38;44984.31;4894754;29;20460;-58
2023/06/29 07:56:07;;;;;;;8.70;4.90;;;;;;;-143.84;38.54;44963.38;4894248;29;20551;-58
2023/06/29 07:58:34;;;;;;;9.80;4.70;;;;;;;-143.84;38.31;44990.03;4894659;29;20496;-58
2023/06/29 08:01:01;;;;;;;5.20;4.77;;;;;;;-143.84;39.32;44969.09;4894411;29;20958;-58
2023/06/29 08:03:28;;;;;;;5.40;4.90;;;;;;;-143.84;39.07;44978.63;4894544;29;20445;-58
2023/06/29 08:05:56;;;;;;;7.10;5.23;;;;;;;-143.84;37.95;44976.72;4894464;29;20456;-58
2023/06/29 08:08:23;;;;;;;5.20;4.80;;;;;;;-143.84;38.63;44991.94;4894480;29;20446;-58
2023/06/29 08:10:50;;;;;;;5.17;4.77;;;;;;;-143.84;38.07;44976.72;4894477;29;20519;-58
2023/06/29 08:13:19;;;;;;;5.07;4.63;;;;;;;-143.84;38.88;44971.00;4894231;29;20453;-58
2023/06/29 08:15:46;;;;;;;5.30;4.90;;;;;;;-143.84;38.49;44972.91;4904877;29;20458;-58
2023/06/29 08:18:13;;;;;;;11.50;4.60;;;;;;;-143.84;39.36;44974.81;4912847;29;20903;-58
2023/06/29 08:20:41;;;;;;;5.30;4.47;;;;;;;-143.84;36.67;44932.91;4912861;29;20445;-58
2023/06/29 08:23:08;;;;;;;5.93;4.50;;;;;;;-143.84;37.33;44971.00;4912851;29;20448;-58
2023/06/29 08:25:35;;;;;;;5.20;4.70;;;;;;;-143.84;36.37;44974.81;4912989;29;20485;-58
2023/06/29 08:28:02;;;;;;;4.27;4.07;;;;;;;-143.84;36.27;44932.91;4912964;29;20464;-56
2023/06/29 08:30:31;;;;;;;5.00;4.50;;;;;;;-143.84;36.41;44972.91;4912908;29;20444;-56
2023/06/29 08:32:58;;;;;;;4.80;4.40;;;;;;;-143.84;37.15;44990.03;4912898;29;20462;-56
2023/06/29 08:35:25;;;;;;;7.23;4.43;;;;;;;-143.84;37.26;44990.03;4896542;29;20453;-56
2023/06/29 08:37:52;;;;;;;3.70;3.50;;;;;;;-143.84;36.73;44948.16;4893833;29;20824;-56
2023/06/29 08:40:21;;;;;;;5.87;4.30;;;;;;;-143.84;36.52;44940.53;4893584;29;20459;-56
2023/06/29 08:42:48;;;;;;;5.47;4.97;;;;;;;-143.84;37.15;44957.66;4892835;29;20548;-56
2023/06/29 08:45:15;;;;;;;4.80;4.40;;;;;;;-143.84;35.96;44971.00;4893598;29;20552;-56
2023/06/29 08:47:49;;;;;;;4.23;3.93;;;;;;;-143.84;35.19;44953.88;4893376;29;20481;-56
2023/06/29 08:50:18;;;;;;;4.80;4.27;;;;;;;-143.84;35.30;44934.81;4893519;29;20461;-56
2023/06/29 08:52:45;;;;;;;5.60;3.70;;;;;;;-143.84;36.39;44953.88;4893696;29;21249;-56
2023/06/29 08:55:12;;;;;;;4.77;4.37;;;;;;;-143.84;36.30;44953.88;4892430;29;20453;-56
2023/06/29 08:57:40;;;;;;;6.17;3.70;;;;;;;-143.84;36.41;44955.75;4892516;29;20502;-56
2023/06/29 09:00:09;;;;;;;8.70;7.73;;;;;;;-143.84;35.73;44969.09;4892797;29;21134;-58
2023/06/29 09:02:37;;;;;;;13.10;8.50;;;;;;;-143.84;36.10;44980.53;4892503;29;20453;-57
2023/06/29 09:05:06;;;;;;;9.03;7.30;;;;;;;-143.84;35.86;44976.72;4892911;29;20532;-56
2023/06/29 09:07:34;;;;;;;8.13;4.00;;;;;;;-143.84;35.66;44972.91;4892089;29;20453;-57
2023/06/29 09:10:02;;;;;;;3.60;3.40;;;;;;;-143.84;35.31;44925.31;4897329;29;21399;-56
2023/06/29 09:12:29;;;;;;;5.33;4.13;;;;;;;-143.84;36.02;44963.38;4901599;29;20479;-57
2023/06/29 09:14:57;;;;;;;4.40;4.00;;;;;;;-143.84;36.95;44984.31;4891315;29;20482;-57
2023/06/29 09:17:24;;;;;;;4.00;3.60;;;;;;;-143.84;34.89;44961.47;4892227;29;20441;-56
2023/06/29 09:19:56;;;;;;;5.07;3.93;;;;;;;-143.84;36.39;44948.16;4902129;29;20529;-56
2023/06/29 09:22:28;;;;;;;9.33;3.87;;;;;;;-143.84;37.35;44965.28;4891975;29;20466;-56
2023/06/29 09:24:57;;;;;;;6.37;4.10;;;;;;;-143.84;35.85;44934.81;4891174;29;20472;-57
2023/06/29 09:27:24;;;;;;;7.13;3.57;;;;;;;-143.84;35.33;44961.47;4892101;29;20448;-56
2023/06/29 09:29:52;;;;;;;5.17;3.63;;;;;;;-143.84;34.51;44959.56;4891727;29;20458;-56
2023/06/29 09:32:20;;;;;;;7.53;3.70;;;;;;;-143.84;34.94;44929.09;4892181;29;20527;-56
2023/06/29 09:34:48;;;;;;;7.60;3.70;;;;;;;-143.84;36.02;44953.88;4893605;29;20445;-56
2023/06/29 09:37:16;;;;;;;4.17;3.87;;;;;;;-143.84;34.98;44957.66;4892699;29;20453;-56
2023/06/29 09:40:05;;;;;;;6.60;3.90;;;;;;;-143.84;36.25;44957.66;4894550;29;20452;-56
2023/06/29 09:42:37;;;;;;;4.60;4.30;;;;;;;-143.84;34.60;44927.19;4891096;29;20543;-56
2023/06/29 09:45:07;;;;;;;3.60;3.40;;;;;;;-143.84;34.30;44948.16;4892198;29;20458;-56
2023/06/29 09:47:35;;;;;;;4.20;4.00;;;;;;;-143.84;34.96;44931.00;4891806;29;20493;-56
2023/06/29 09:50:02;;;;;;;9.83;4.37;;;;;;;-143.84;34.88;44946.25;4892116;29;20511;-56
2023/06/29 09:52:29;;;;;;;4.13;3.83;;;;;;;-143.84;34.61;44919.59;4895476;29;20572;-56
2023/06/29 09:54:58;;;;;;;3.10;2.90;;;;;;;-143.84;33.44;44944.34;4895859;29;20503;-56
2023/06/29 09:57:28;;;;;;;3.90;3.60;;;;;;;-143.84;34.59;44911.97;4902432;29;20563;-56
2023/06/29 09:59:56;;;;;;;8.07;3.97;;;;;;;-143.84;34.51;44929.09;4904469;29;20531;-56
2023/06/29 10:02:24;;;;;;;6.13;4.20;;;;;;;-143.84;34.87;44931.00;4904358;29;20516;-56
2023/06/29 10:04:51;;;;;;;4.33;3.97;;;;;;;-143.84;35.53;44942.44;4894696;29;20538;-56
2023/06/29 10:07:19;;;;;;;4.70;4.30;;;;;;;-143.84;34.26;44957.66;4893148;29;20445;-56
2023/06/29 10:09:50;;;;;;;6.10;4.60;;;;;;;-143.84;35.88;44925.31;4903000;29;20480;-56
2023/06/29 10:12:18;;;;;;;9.03;3.97;;;;;;;-143.84;35.17;44961.47;4904554;29;20516;-56
2023/06/29 10:14:48;;;;;;;5.53;3.83;;;;;;;-143.84;35.27;44953.88;4894353;29;20556;-56
2023/06/29 10:17:20;;;;;;;4.23;3.80;;;;;;;-143.84;34.57;44929.09;4904070;29;20468;-56
2023/06/29 10:19:50;;;;;;;7.60;4.30;;;;;;;-143.84;35.06;44974.81;4903169;29;21200;-56
2023/06/29 10:22:18;;;;;;;5.33;3.60;;;;;;;-143.84;35.11;44959.56;4903408;29;20520;-57
2023/06/29 10:24:49;;;;;;;4.33;4.00;;;;;;;-143.84;35.27;44942.44;4904350;29;20473;-56
2023/06/29 10:27:17;;;;;;;7.23;3.50;;;;;;;-143.84;35.16;44963.38;4897661;29;20936;-56
2023/06/29 10:29:47;;;;;;;3.57;3.20;;;;;;;-143.84;34.82;44971.00;4896390;29;20448;-56
2023/06/29 10:32:30;;;;;;;4.37;3.97;;;;;;;-143.84;34.67;44946.25;4904212;29;20465;-57
2023/06/29 10:35:04;;;;;;;3.70;3.27;;;;;;;-143.84;33.44;44932.91;4894660;29;20445;-56
2023/06/29 10:37:32;;;;;;;3.40;3.20;;;;;;;-143.84;34.75;44953.88;4893864;29;20827;-57
2023/06/29 10:39:59;;;;;;;3.37;3.17;;;;;;;-143.84;34.06;44978.63;4897741;29;20508;-56
2023/06/29 10:42:49;;;;;;;7.10;3.70;;;;;;;-143.84;33.97;44950.06;4901596;29;20946;-56
2023/06/29 10:45:34;;;;;;;4.13;3.80;;;;;;;-143.84;34.14;44955.75;4904017;29;21055;-56
2023/06/29 10:48:07;;;;;;;4.37;3.50;;;;;;;-143.84;34.09;44951.97;4897870;29;20467;-56
2023/06/29 10:50:38;;;;;;;4.00;3.70;;;;;;;-143.84;34.52;44961.47;4894286;29;20586;-56
2023/06/29 10:53:06;;;;;;;4.90;3.80;;;;;;;-143.84;35.75;44953.88;4904446;29;20467;-56
2023/06/29 10:55:45;;;;;;;3.90;3.60;;;;;;;-143.84;34.11;44953.88;4904470;29;20460;-56
2023/06/29 10:58:19;;;;;;;4.10;3.70;;;;;;;-143.84;33.23;44965.28;4892842;29;20507;-56
2023/06/29 11:00:48;;;;;;;4.07;3.67;;;;;;;-143.84;34.74;44919.59;4893514;29;20456;-56
2023/06/29 11:03:15;;;;;;;4.40;4.00;;;;;;;-143.84;33.74;44944.34;4898083;29;21082;-56
2023/06/29 11:05:43;;;;;;;3.87;3.47;;;;;;;-143.84;33.90;44946.25;4898185;29;20578;-56
2023/06/29 11:08:11;;;;;;;3.77;3.47;;;;;;;-143.84;33.68;44942.44;4892788;29;20517;-56
2023/06/29 11:10:38;;;;;;;4.60;3.60;;;;;;;-143.84;33.44;44950.06;4893920;29;20576;-56
2023/06/29 11:13:09;;;;;;;4.23;3.87;;;;;;;-143.84;33.92;44942.44;4893902;29;20485;-56
2023/06/29 11:15:37;;;;;;;6.43;3.70;;;;;;;-143.84;33.97;44940.53;4893851;29;20460;-56
2023/06/29 11:18:08;;;;;;;4.13;3.80;;;;;;;-143.84;33.80;44953.88;4897984;29;20532;-56